sensor_id;sensor_type;location;lat;lon;timestamp;P1;durP1;ratioP1;P2;durP2;ratioP2
12758;SDS011;20944;47.048;15.390;2023-06-10T00:00:10;2.10;;;1.83;;
12758;SDS011;20944;47.048;15.390;2023-06-10T00:02:41;3.65;;;1.75;;
12758;SDS011;20944;47.048;15.390;2023-06-10T00:05:10;1.92;;;1.63;;
12758;SDS011;20944;47.048;15.390;2023-06-10T00:07:40;2.17;;;1.98;;
12758;SDS011;20944;47.048;15.390;2023-06-10T00:10:08;3.25;;;2.13;;
12758;SDS011;20944;47.048;15.390;2023-06-10T00:12:37;2.83;;;1.98;;
12758;SDS011;20944;47.048;15.390;2023-06-10T00:15:07;3.22;;;2.33;;
12758;SDS011;20944;47.048;15.390;2023-06-10T00:17:36;4.85;;;1.70;;
12758;SDS011;20944;47.048;15.390;2023-06-10T00:20:07;2.10;;;1.90;;
12758;SDS011;20944;47.048;15.390;2023-06-10T00:22:40;2.05;;;1.85;;
12758;SDS011;20944;47.048;15.390;2023-06-10T00:25:12;2.80;;;2.28;;
12758;SDS011;20944;47.048;15.390;2023-06-10T00:27:40;2.60;;;2.40;;
12758;SDS011;20944;47.048;15.390;2023-06-10T00:30:09;2.63;;;2.38;;
12758;SDS011;20944;47.048;15.390;2023-06-10T00:32:38;2.40;;;2.10;;
12758;SDS011;20944;47.048;15.390;2023-06-10T00:35:06;2.30;;;2.10;;
12758;SDS011;20944;47.048;15.390;2023-06-10T00:37:35;2.88;;;2.20;;
12758;SDS011;20944;47.048;15.390;2023-06-10T00:40:06;4.47;;;2.45;;
12758;SDS011;20944;47.048;15.390;2023-06-10T00:42:35;2.50;;;2.30;;
12758;SDS011;20944;47.048;15.390;2023-06-10T00:45:04;3.35;;;2.55;;
12758;SDS011;20944;47.048;15.390;2023-06-10T00:47:34;2.05;;;1.88;;
12758;SDS011;20944;47.048;15.390;2023-06-10T00:50:03;2.50;;;2.22;;
12758;SDS011;20944;47.048;15.390;2023-06-10T00:52:32;2.33;;;2.03;;
12758;SDS011;20944;47.048;15.390;2023-06-10T00:55:02;3.75;;;2.40;;
12758;SDS011;20944;47.048;15.390;2023-06-10T00:57:32;2.72;;;2.05;;
12758;SDS011;20944;47.048;15.390;2023-06-10T01:00:00;3.40;;;2.20;;
12758;SDS011;20944;47.048;15.390;2023-06-10T01:02:33;3.42;;;2.20;;
12758;SDS011;20944;47.048;15.390;2023-06-10T01:05:02;2.13;;;1.92;;
12758;SDS011;20944;47.048;15.390;2023-06-10T01:07:33;2.58;;;1.95;;
12758;SDS011;20944;47.048;15.390;2023-06-10T01:10:08;4.88;;;2.05;;
12758;SDS011;20944;47.048;15.390;2023-06-10T01:12:43;4.10;;;2.40;;
12758;SDS011;20944;47.048;15.390;2023-06-10T01:15:18;2.33;;;2.13;;
12758;SDS011;20944;47.048;15.390;2023-06-10T01:17:54;2.30;;;2.08;;
12758;SDS011;20944;47.048;15.390;2023-06-10T01:20:25;2.85;;;2.22;;
12758;SDS011;20944;47.048;15.390;2023-06-10T01:22:55;3.83;;;2.60;;
12758;SDS011;20944;47.048;15.390;2023-06-10T01:25:24;2.70;;;2.42;;
12758;SDS011;20944;47.048;15.390;2023-06-10T01:27:58;4.57;;;2.78;;
12758;SDS011;20944;47.048;15.390;2023-06-10T01:30:39;4.10;;;2.72;;
12758;SDS011;20944;47.048;15.390;2023-06-10T01:33:14;2.75;;;2.20;;
12758;SDS011;20944;47.048;15.390;2023-06-10T01:35:46;3.38;;;2.42;;
12758;SDS011;20944;47.048;15.390;2023-06-10T01:38:17;2.47;;;2.05;;
12758;SDS011;20944;47.048;15.390;2023-06-10T01:40:48;2.20;;;1.80;;
12758;SDS011;20944;47.048;15.390;2023-06-10T01:43:17;2.85;;;2.25;;
12758;SDS011;20944;47.048;15.390;2023-06-10T01:45:45;2.78;;;1.90;;
12758;SDS011;20944;47.048;15.390;2023-06-10T01:48:13;3.70;;;2.17;;
12758;SDS011;20944;47.048;15.390;2023-06-10T01:50:41;4.35;;;2.05;;
12758;SDS011;20944;47.048;15.390;2023-06-10T01:53:10;2.03;;;1.65;;
12758;SDS011;20944;47.048;15.390;2023-06-10T01:55:40;2.00;;;1.80;;
12758;SDS011;20944;47.048;15.390;2023-06-10T01:58:08;3.80;;;2.05;;
12758;SDS011;20944;47.048;15.390;2023-06-10T02:00:36;2.33;;;2.10;;
12758;SDS011;20944;47.048;15.390;2023-06-10T02:03:05;2.67;;;2.20;;
12758;SDS011;20944;47.048;15.390;2023-06-10T02:05:33;2.45;;;1.98;;
12758;SDS011;20944;47.048;15.390;2023-06-10T02:08:01;2.42;;;2.17;;
12758;SDS011;20944;47.048;15.390;2023-06-10T02:10:30;2.75;;;2.05;;
12758;SDS011;20944;47.048;15.390;2023-06-10T02:12:59;2.53;;;2.17;;
12758;SDS011;20944;47.048;15.390;2023-06-10T02:15:28;2.92;;;2.30;;
12758;SDS011;20944;47.048;15.390;2023-06-10T02:17:56;3.10;;;2.13;;
12758;SDS011;20944;47.048;15.390;2023-06-10T02:20:24;1.48;;;1.30;;
12758;SDS011;20944;47.048;15.390;2023-06-10T02:22:52;3.70;;;2.60;;
12758;SDS011;20944;47.048;15.390;2023-06-10T02:25:21;3.55;;;2.58;;
12758;SDS011;20944;47.048;15.390;2023-06-10T02:27:49;2.20;;;1.92;;
12758;SDS011;20944;47.048;15.390;2023-06-10T02:30:18;2.35;;;1.83;;
12758;SDS011;20944;47.048;15.390;2023-06-10T02:32:47;2.47;;;1.73;;
12758;SDS011;20944;47.048;15.390;2023-06-10T02:35:15;1.67;;;1.58;;
12758;SDS011;20944;47.048;15.390;2023-06-10T02:37:43;2.97;;;2.03;;
12758;SDS011;20944;47.048;15.390;2023-06-10T02:40:12;2.65;;;2.30;;
12758;SDS011;20944;47.048;15.390;2023-06-10T02:42:40;2.28;;;2.08;;
12758;SDS011;20944;47.048;15.390;2023-06-10T02:45:08;3.53;;;2.38;;
12758;SDS011;20944;47.048;15.390;2023-06-10T02:47:38;2.10;;;1.92;;
12758;SDS011;20944;47.048;15.390;2023-06-10T02:50:07;3.25;;;2.03;;
12758;SDS011;20944;47.048;15.390;2023-06-10T02:52:36;1.90;;;1.70;;
12758;SDS011;20944;47.048;15.390;2023-06-10T02:55:05;3.75;;;2.15;;
12758;SDS011;20944;47.048;15.390;2023-06-10T02:57:34;3.58;;;2.38;;
12758;SDS011;20944;47.048;15.390;2023-06-10T03:00:02;3.92;;;2.67;;
12758;SDS011;20944;47.048;15.390;2023-06-10T03:02:35;3.72;;;2.30;;
12758;SDS011;20944;47.048;15.390;2023-06-10T03:05:07;2.30;;;2.10;;
12758;SDS011;20944;47.048;15.390;2023-06-10T03:07:37;5.45;;;2.30;;
12758;SDS011;20944;47.048;15.390;2023-06-10T03:10:06;2.30;;;2.10;;
12758;SDS011;20944;47.048;15.390;2023-06-10T03:12:35;1.95;;;1.80;;
12758;SDS011;20944;47.048;15.390;2023-06-10T03:15:03;2.53;;;1.98;;
12758;SDS011;20944;47.048;15.390;2023-06-10T03:17:33;2.50;;;2.10;;
12758;SDS011;20944;47.048;15.390;2023-06-10T03:20:01;6.10;;;2.70;;
12758;SDS011;20944;47.048;15.390;2023-06-10T03:22:31;3.65;;;2.55;;
12758;SDS011;20944;47.048;15.390;2023-06-10T03:24:59;4.55;;;2.72;;
12758;SDS011;20944;47.048;15.390;2023-06-10T03:27:27;3.90;;;2.92;;
12758;SDS011;20944;47.048;15.390;2023-06-10T03:29:56;3.17;;;2.20;;
12758;SDS011;20944;47.048;15.390;2023-06-10T03:32:25;4.22;;;2.75;;
12758;SDS011;20944;47.048;15.390;2023-06-10T03:34:53;2.88;;;1.98;;
12758;SDS011;20944;47.048;15.390;2023-06-10T03:37:23;2.83;;;2.28;;
12758;SDS011;20944;47.048;15.390;2023-06-10T03:39:53;3.20;;;2.80;;
12758;SDS011;20944;47.048;15.390;2023-06-10T03:42:21;4.22;;;3.00;;
12758;SDS011;20944;47.048;15.390;2023-06-10T03:44:50;4.00;;;2.47;;
12758;SDS011;20944;47.048;15.390;2023-06-10T03:47:18;4.68;;;2.60;;
12758;SDS011;20944;47.048;15.390;2023-06-10T03:49:46;3.47;;;2.95;;
12758;SDS011;20944;47.048;15.390;2023-06-10T03:52:14;4.03;;;2.63;;
12758;SDS011;20944;47.048;15.390;2023-06-10T03:54:43;4.40;;;3.25;;
12758;SDS011;20944;47.048;15.390;2023-06-10T03:57:12;5.32;;;2.75;;
12758;SDS011;20944;47.048;15.390;2023-06-10T03:59:41;3.90;;;2.95;;
12758;SDS011;20944;47.048;15.390;2023-06-10T04:02:09;4.25;;;3.25;;
12758;SDS011;20944;47.048;15.390;2023-06-10T04:04:38;4.78;;;2.83;;
12758;SDS011;20944;47.048;15.390;2023-06-10T04:07:06;3.83;;;2.72;;
12758;SDS011;20944;47.048;15.390;2023-06-10T04:09:34;4.35;;;2.85;;
12758;SDS011;20944;47.048;15.390;2023-06-10T04:12:03;4.00;;;2.85;;
12758;SDS011;20944;47.048;15.390;2023-06-10T04:14:36;3.80;;;2.63;;
12758;SDS011;20944;47.048;15.390;2023-06-10T04:17:06;3.55;;;2.88;;
12758;SDS011;20944;47.048;15.390;2023-06-10T04:19:34;3.78;;;3.28;;
12758;SDS011;20944;47.048;15.390;2023-06-10T04:22:02;3.65;;;3.20;;
12758;SDS011;20944;47.048;15.390;2023-06-10T04:24:31;5.32;;;3.72;;
12758;SDS011;20944;47.048;15.390;2023-06-10T04:26:59;4.50;;;3.50;;
12758;SDS011;20944;47.048;15.390;2023-06-10T04:29:28;3.70;;;3.35;;
12758;SDS011;20944;47.048;15.390;2023-06-10T04:31:58;5.80;;;3.63;;
12758;SDS011;20944;47.048;15.390;2023-06-10T04:34:28;5.43;;;3.58;;
12758;SDS011;20944;47.048;15.390;2023-06-10T04:36:56;5.22;;;3.38;;
12758;SDS011;20944;47.048;15.390;2023-06-10T04:39:25;9.10;;;4.15;;
12758;SDS011;20944;47.048;15.390;2023-06-10T04:41:53;4.72;;;3.28;;
12758;SDS011;20944;47.048;15.390;2023-06-10T04:44:21;4.45;;;4.03;;
12758;SDS011;20944;47.048;15.390;2023-06-10T04:46:50;4.78;;;3.72;;
12758;SDS011;20944;47.048;15.390;2023-06-10T04:49:19;7.90;;;3.65;;
12758;SDS011;20944;47.048;15.390;2023-06-10T04:51:47;6.88;;;3.50;;
12758;SDS011;20944;47.048;15.390;2023-06-10T04:54:16;5.20;;;3.80;;
12758;SDS011;20944;47.048;15.390;2023-06-10T04:56:44;4.95;;;3.42;;
12758;SDS011;20944;47.048;15.390;2023-06-10T04:59:13;6.80;;;3.88;;
12758;SDS011;20944;47.048;15.390;2023-06-10T05:01:42;5.72;;;4.22;;
12758;SDS011;20944;47.048;15.390;2023-06-10T05:04:10;6.78;;;4.32;;
12758;SDS011;20944;47.048;15.390;2023-06-10T05:06:40;7.68;;;4.43;;
12758;SDS011;20944;47.048;15.390;2023-06-10T05:09:09;6.03;;;4.07;;
12758;SDS011;20944;47.048;15.390;2023-06-10T05:11:37;6.00;;;4.45;;
12758;SDS011;20944;47.048;15.390;2023-06-10T05:14:05;5.95;;;4.65;;
12758;SDS011;20944;47.048;15.390;2023-06-10T05:16:34;5.35;;;3.78;;
12758;SDS011;20944;47.048;15.390;2023-06-10T05:19:02;6.97;;;4.25;;
12758;SDS011;20944;47.048;15.390;2023-06-10T05:21:33;9.88;;;4.20;;
12758;SDS011;20944;47.048;15.390;2023-06-10T05:24:03;7.63;;;4.13;;
12758;SDS011;20944;47.048;15.390;2023-06-10T05:26:32;6.88;;;4.15;;
12758;SDS011;20944;47.048;15.390;2023-06-10T05:29:03;5.53;;;3.80;;
12758;SDS011;20944;47.048;15.390;2023-06-10T05:31:32;7.25;;;4.68;;
12758;SDS011;20944;47.048;15.390;2023-06-10T05:34:00;6.65;;;4.88;;
12758;SDS011;20944;47.048;15.390;2023-06-10T05:36:29;5.40;;;4.05;;
12758;SDS011;20944;47.048;15.390;2023-06-10T05:38:57;4.90;;;3.40;;
12758;SDS011;20944;47.048;15.390;2023-06-10T05:41:27;6.00;;;4.25;;
12758;SDS011;20944;47.048;15.390;2023-06-10T05:43:55;5.50;;;3.67;;
12758;SDS011;20944;47.048;15.390;2023-06-10T05:46:23;8.02;;;4.30;;
12758;SDS011;20944;47.048;15.390;2023-06-10T05:48:51;5.20;;;4.50;;
12758;SDS011;20944;47.048;15.390;2023-06-10T05:51:20;4.80;;;3.50;;
12758;SDS011;20944;47.048;15.390;2023-06-10T05:53:48;4.80;;;3.35;;
12758;SDS011;20944;47.048;15.390;2023-06-10T05:56:16;3.65;;;3.10;;
12758;SDS011;20944;47.048;15.390;2023-06-10T05:58:46;5.70;;;3.40;;
12758;SDS011;20944;47.048;15.390;2023-06-10T06:01:14;4.78;;;3.25;;
12758;SDS011;20944;47.048;15.390;2023-06-10T06:03:42;4.43;;;3.38;;
12758;SDS011;20944;47.048;15.390;2023-06-10T06:06:11;5.05;;;3.65;;
12758;SDS011;20944;47.048;15.390;2023-06-10T06:08:39;3.92;;;3.28;;
12758;SDS011;20944;47.048;15.390;2023-06-10T06:11:07;3.28;;;2.90;;
12758;SDS011;20944;47.048;15.390;2023-06-10T06:13:36;3.53;;;2.83;;
12758;SDS011;20944;47.048;15.390;2023-06-10T06:16:05;3.30;;;2.67;;
12758;SDS011;20944;47.048;15.390;2023-06-10T06:18:34;3.65;;;3.17;;
12758;SDS011;20944;47.048;15.390;2023-06-10T06:21:02;4.20;;;3.10;;
12758;SDS011;20944;47.048;15.390;2023-06-10T06:23:30;3.53;;;3.03;;
12758;SDS011;20944;47.048;15.390;2023-06-10T06:25:58;4.35;;;3.00;;
12758;SDS011;20944;47.048;15.390;2023-06-10T06:28:27;2.80;;;2.60;;
12758;SDS011;20944;47.048;15.390;2023-06-10T06:30:55;3.17;;;2.88;;
12758;SDS011;20944;47.048;15.390;2023-06-10T06:33:25;3.08;;;2.83;;
12758;SDS011;20944;47.048;15.390;2023-06-10T06:35:54;4.35;;;2.60;;
12758;SDS011;20944;47.048;15.390;2023-06-10T06:38:22;5.15;;;3.75;;
12758;SDS011;20944;47.048;15.390;2023-06-10T06:40:50;4.05;;;3.05;;
12758;SDS011;20944;47.048;15.390;2023-06-10T06:43:18;3.83;;;3.42;;
12758;SDS011;20944;47.048;15.390;2023-06-10T06:45:46;3.08;;;2.42;;
12758;SDS011;20944;47.048;15.390;2023-06-10T06:48:15;3.70;;;2.85;;
12758;SDS011;20944;47.048;15.390;2023-06-10T06:50:44;3.75;;;2.78;;
12758;SDS011;20944;47.048;15.390;2023-06-10T06:53:13;5.75;;;3.15;;
12758;SDS011;20944;47.048;15.390;2023-06-10T06:55:41;4.78;;;3.30;;
12758;SDS011;20944;47.048;15.390;2023-06-10T06:58:09;3.22;;;2.92;;
12758;SDS011;20944;47.048;15.390;2023-06-10T07:00:37;5.85;;;3.00;;
12758;SDS011;20944;47.048;15.390;2023-06-10T07:03:06;3.90;;;2.88;;
12758;SDS011;20944;47.048;15.390;2023-06-10T07:05:34;3.72;;;3.40;;
12758;SDS011;20944;47.048;15.390;2023-06-10T07:08:04;4.30;;;3.58;;
12758;SDS011;20944;47.048;15.390;2023-06-10T07:10:32;3.20;;;2.90;;
12758;SDS011;20944;47.048;15.390;2023-06-10T07:13:02;4.20;;;3.30;;
12758;SDS011;20944;47.048;15.390;2023-06-10T07:15:30;3.33;;;3.03;;
12758;SDS011;20944;47.048;15.390;2023-06-10T07:17:59;3.30;;;2.83;;
12758;SDS011;20944;47.048;15.390;2023-06-10T07:20:27;3.58;;;3.28;;
12758;SDS011;20944;47.048;15.390;2023-06-10T07:22:55;3.75;;;3.17;;
12758;SDS011;20944;47.048;15.390;2023-06-10T07:25:25;3.17;;;2.85;;
12758;SDS011;20944;47.048;15.390;2023-06-10T07:27:53;4.05;;;3.50;;
12758;SDS011;20944;47.048;15.390;2023-06-10T07:30:22;4.55;;;3.40;;
12758;SDS011;20944;47.048;15.390;2023-06-10T07:32:50;4.07;;;3.67;;
12758;SDS011;20944;47.048;15.390;2023-06-10T07:35:19;4.95;;;3.42;;
12758;SDS011;20944;47.048;15.390;2023-06-10T07:37:47;3.67;;;3.38;;
12758;SDS011;20944;47.048;15.390;2023-06-10T07:40:15;3.22;;;2.92;;
12758;SDS011;20944;47.048;15.390;2023-06-10T07:42:45;4.57;;;3.38;;
12758;SDS011;20944;47.048;15.390;2023-06-10T07:45:13;4.55;;;3.70;;
12758;SDS011;20944;47.048;15.390;2023-06-10T07:47:42;6.22;;;3.15;;
12758;SDS011;20944;47.048;15.390;2023-06-10T07:50:10;4.97;;;3.67;;
12758;SDS011;20944;47.048;15.390;2023-06-10T07:52:38;5.30;;;3.80;;
12758;SDS011;20944;47.048;15.390;2023-06-10T07:55:07;4.40;;;3.55;;
12758;SDS011;20944;47.048;15.390;2023-06-10T07:57:35;4.90;;;3.88;;
12758;SDS011;20944;47.048;15.390;2023-06-10T08:00:07;4.20;;;3.63;;
12758;SDS011;20944;47.048;15.390;2023-06-10T08:02:36;5.55;;;3.47;;
12758;SDS011;20944;47.048;15.390;2023-06-10T08:05:04;4.18;;;3.67;;
12758;SDS011;20944;47.048;15.390;2023-06-10T08:07:33;4.07;;;3.20;;
12758;SDS011;20944;47.048;15.390;2023-06-10T08:10:02;6.65;;;3.70;;
12758;SDS011;20944;47.048;15.390;2023-06-10T08:12:31;3.25;;;2.95;;
12758;SDS011;20944;47.048;15.390;2023-06-10T08:15:00;4.03;;;3.63;;
12758;SDS011;20944;47.048;15.390;2023-06-10T08:17:30;4.65;;;3.70;;
12758;SDS011;20944;47.048;15.390;2023-06-10T08:19:58;6.20;;;4.35;;
12758;SDS011;20944;47.048;15.390;2023-06-10T08:22:27;5.13;;;4.10;;
12758;SDS011;20944;47.048;15.390;2023-06-10T08:24:55;4.05;;;3.60;;
12758;SDS011;20944;47.048;15.390;2023-06-10T08:27:24;3.75;;;3.42;;
12758;SDS011;20944;47.048;15.390;2023-06-10T08:29:52;7.20;;;3.83;;
12758;SDS011;20944;47.048;15.390;2023-06-10T08:32:20;5.90;;;4.07;;
12758;SDS011;20944;47.048;15.390;2023-06-10T08:34:50;5.50;;;4.05;;
12758;SDS011;20944;47.048;15.390;2023-06-10T08:37:19;5.93;;;4.50;;
12758;SDS011;20944;47.048;15.390;2023-06-10T08:39:47;4.60;;;4.15;;
12758;SDS011;20944;47.048;15.390;2023-06-10T08:42:17;5.53;;;4.07;;
12758;SDS011;20944;47.048;15.390;2023-06-10T08:44:50;4.50;;;3.53;;
12758;SDS011;20944;47.048;15.390;2023-06-10T08:47:23;5.15;;;3.72;;
12758;SDS011;20944;47.048;15.390;2023-06-10T08:49:55;5.72;;;4.47;;
12758;SDS011;20944;47.048;15.390;2023-06-10T08:52:27;5.63;;;4.22;;
12758;SDS011;20944;47.048;15.390;2023-06-10T08:55:03;5.63;;;3.88;;
12758;SDS011;20944;47.048;15.390;2023-06-10T08:57:37;4.22;;;3.58;;
12758;SDS011;20944;47.048;15.390;2023-06-10T09:00:07;5.45;;;4.20;;
12758;SDS011;20944;47.048;15.390;2023-06-10T09:02:36;3.95;;;3.50;;
12758;SDS011;20944;47.048;15.390;2023-06-10T09:05:07;4.43;;;3.80;;
12758;SDS011;20944;47.048;15.390;2023-06-10T09:07:36;7.00;;;3.65;;
12758;SDS011;20944;47.048;15.390;2023-06-10T09:10:06;5.35;;;4.35;;
12758;SDS011;20944;47.048;15.390;2023-06-10T09:12:35;5.15;;;4.40;;
12758;SDS011;20944;47.048;15.390;2023-06-10T09:15:05;5.93;;;4.10;;
12758;SDS011;20944;47.048;15.390;2023-06-10T09:17:35;4.45;;;4.03;;
12758;SDS011;20944;47.048;15.390;2023-06-10T09:20:05;3.92;;;3.50;;
12758;SDS011;20944;47.048;15.390;2023-06-10T09:22:36;4.57;;;3.90;;
12758;SDS011;20944;47.048;15.390;2023-06-10T09:25:05;5.85;;;4.28;;
12758;SDS011;20944;47.048;15.390;2023-06-10T09:27:43;4.80;;;3.55;;
12758;SDS011;20944;47.048;15.390;2023-06-10T09:30:24;5.00;;;3.72;;
12758;SDS011;20944;47.048;15.390;2023-06-10T09:32:54;5.00;;;3.95;;
12758;SDS011;20944;47.048;15.390;2023-06-10T09:35:26;5.05;;;3.95;;
12758;SDS011;20944;47.048;15.390;2023-06-10T09:37:57;4.25;;;3.90;;
12758;SDS011;20944;47.048;15.390;2023-06-10T09:40:26;4.22;;;3.83;;
12758;SDS011;20944;47.048;15.390;2023-06-10T09:42:54;5.50;;;4.35;;
12758;SDS011;20944;47.048;15.390;2023-06-10T09:45:28;4.82;;;4.05;;
12758;SDS011;20944;47.048;15.390;2023-06-10T09:47:57;5.25;;;3.97;;
12758;SDS011;20944;47.048;15.390;2023-06-10T09:50:27;4.35;;;3.95;;
12758;SDS011;20944;47.048;15.390;2023-06-10T09:53:00;4.47;;;4.07;;
12758;SDS011;20944;47.048;15.390;2023-06-10T09:55:31;4.32;;;3.72;;
12758;SDS011;20944;47.048;15.390;2023-06-10T09:58:01;4.75;;;3.20;;
12758;SDS011;20944;47.048;15.390;2023-06-10T10:00:31;4.05;;;3.70;;
12758;SDS011;20944;47.048;15.390;2023-06-10T10:03:00;3.92;;;3.38;;
12758;SDS011;20944;47.048;15.390;2023-06-10T10:05:30;4.78;;;3.35;;
12758;SDS011;20944;47.048;15.390;2023-06-10T10:07:58;4.32;;;3.92;;
12758;SDS011;20944;47.048;15.390;2023-06-10T10:10:26;5.13;;;4.63;;
12758;SDS011;20944;47.048;15.390;2023-06-10T10:12:54;4.25;;;3.85;;
12758;SDS011;20944;47.048;15.390;2023-06-10T10:15:24;3.75;;;3.45;;
12758;SDS011;20944;47.048;15.390;2023-06-10T10:17:58;4.43;;;3.88;;
12758;SDS011;20944;47.048;15.390;2023-06-10T10:20:33;4.50;;;3.83;;
12758;SDS011;20944;47.048;15.390;2023-06-10T10:23:05;3.85;;;3.55;;
12758;SDS011;20944;47.048;15.390;2023-06-10T10:25:38;8.00;;;4.13;;
12758;SDS011;20944;47.048;15.390;2023-06-10T10:28:10;4.13;;;3.72;;
12758;SDS011;20944;47.048;15.390;2023-06-10T10:30:40;5.22;;;3.63;;
12758;SDS011;20944;47.048;15.390;2023-06-10T10:33:12;4.30;;;3.92;;
12758;SDS011;20944;47.048;15.390;2023-06-10T10:35:46;4.63;;;3.88;;
12758;SDS011;20944;47.048;15.390;2023-06-10T10:38:14;4.18;;;3.70;;
12758;SDS011;20944;47.048;15.390;2023-06-10T10:40:43;3.63;;;3.33;;
12758;SDS011;20944;47.048;15.390;2023-06-10T10:43:14;3.40;;;3.10;;
12758;SDS011;20944;47.048;15.390;2023-06-10T10:45:46;3.78;;;3.40;;
12758;SDS011;20944;47.048;15.390;2023-06-10T10:48:25;4.70;;;3.40;;
12758;SDS011;20944;47.048;15.390;2023-06-10T10:50:57;3.90;;;3.60;;
12758;SDS011;20944;47.048;15.390;2023-06-10T10:53:26;3.80;;;3.45;;
12758;SDS011;20944;47.048;15.390;2023-06-10T10:55:58;4.15;;;3.13;;
12758;SDS011;20944;47.048;15.390;2023-06-10T10:58:27;3.20;;;2.92;;
12758;SDS011;20944;47.048;15.390;2023-06-10T11:00:55;3.00;;;2.80;;
12758;SDS011;20944;47.048;15.390;2023-06-10T11:03:27;3.75;;;3.45;;
12758;SDS011;20944;47.048;15.390;2023-06-10T11:05:58;3.38;;;3.08;;
12758;SDS011;20944;47.048;15.390;2023-06-10T11:11:18;4.13;;;3.03;;
12758;SDS011;20944;47.048;15.390;2023-06-10T11:13:57;2.88;;;2.67;;
12758;SDS011;20944;47.048;15.390;2023-06-10T11:16:27;3.03;;;2.83;;
12758;SDS011;20944;47.048;15.390;2023-06-10T11:18:56;3.58;;;3.13;;
12758;SDS011;20944;47.048;15.390;2023-06-10T11:21:26;3.70;;;3.40;;
12758;SDS011;20944;47.048;15.390;2023-06-10T11:23:57;6.75;;;3.50;;
12758;SDS011;20944;47.048;15.390;2023-06-10T11:26:34;3.05;;;2.85;;
12758;SDS011;20944;47.048;15.390;2023-06-10T11:29:09;4.47;;;3.17;;
12758;SDS011;20944;47.048;15.390;2023-06-10T11:31:41;3.40;;;3.15;;
12758;SDS011;20944;47.048;15.390;2023-06-10T11:34:12;3.40;;;3.10;;
12758;SDS011;20944;47.048;15.390;2023-06-10T11:36:42;3.47;;;3.10;;
12758;SDS011;20944;47.048;15.390;2023-06-10T11:39:12;3.38;;;3.08;;
12758;SDS011;20944;47.048;15.390;2023-06-10T11:41:40;3.25;;;2.88;;
12758;SDS011;20944;47.048;15.390;2023-06-10T11:44:09;3.65;;;3.35;;
12758;SDS011;20944;47.048;15.390;2023-06-10T11:46:41;3.58;;;3.28;;
12758;SDS011;20944;47.048;15.390;2023-06-10T11:49:11;4.60;;;3.45;;
12758;SDS011;20944;47.048;15.390;2023-06-10T11:51:39;3.92;;;3.40;;
12758;SDS011;20944;47.048;15.390;2023-06-10T11:54:16;3.67;;;3.20;;
12758;SDS011;20944;47.048;15.390;2023-06-10T11:56:45;3.60;;;3.00;;
12758;SDS011;20944;47.048;15.390;2023-06-10T11:59:14;3.83;;;3.47;;
12758;SDS011;20944;47.048;15.390;2023-06-10T12:01:43;3.30;;;3.05;;
12758;SDS011;20944;47.048;15.390;2023-06-10T12:04:13;4.55;;;3.67;;
12758;SDS011;20944;47.048;15.390;2023-06-10T12:06:46;3.85;;;3.50;;
12758;SDS011;20944;47.048;15.390;2023-06-10T12:09:19;3.55;;;3.22;;
12758;SDS011;20944;47.048;15.390;2023-06-10T12:11:54;3.50;;;3.20;;
12758;SDS011;20944;47.048;15.390;2023-06-10T12:17:35;3.67;;;2.95;;
12758;SDS011;20944;47.048;15.390;2023-06-10T12:20:05;3.00;;;2.80;;
12758;SDS011;20944;47.048;15.390;2023-06-10T12:22:39;3.13;;;2.83;;
12758;SDS011;20944;47.048;15.390;2023-06-10T12:25:09;3.10;;;2.80;;
12758;SDS011;20944;47.048;15.390;2023-06-10T12:27:40;4.72;;;3.67;;
12758;SDS011;20944;47.048;15.390;2023-06-10T12:30:19;3.08;;;2.75;;
12758;SDS011;20944;47.048;15.390;2023-06-10T12:32:48;2.90;;;2.55;;
12758;SDS011;20944;47.048;15.390;2023-06-10T12:35:17;2.67;;;2.58;;
12758;SDS011;20944;47.048;15.390;2023-06-10T12:37:56;2.90;;;2.70;;
12758;SDS011;20944;47.048;15.390;2023-06-10T12:40:26;3.80;;;3.50;;
12758;SDS011;20944;47.048;15.390;2023-06-10T12:42:56;3.30;;;3.00;;
12758;SDS011;20944;47.048;15.390;2023-06-10T12:45:27;2.78;;;2.58;;
12758;SDS011;20944;47.048;15.390;2023-06-10T12:48:06;3.17;;;2.97;;
12758;SDS011;20944;47.048;15.390;2023-06-10T12:50:36;3.25;;;2.95;;
12758;SDS011;20944;47.048;15.390;2023-06-10T12:53:07;2.67;;;2.50;;
12758;SDS011;20944;47.048;15.390;2023-06-10T12:55:36;3.28;;;2.80;;
12758;SDS011;20944;47.048;15.390;2023-06-10T12:58:04;2.45;;;2.28;;
12758;SDS011;20944;47.048;15.390;2023-06-10T13:00:32;2.95;;;2.75;;
12758;SDS011;20944;47.048;15.390;2023-06-10T13:03:02;2.67;;;2.58;;
12758;SDS011;20944;47.048;15.390;2023-06-10T13:05:32;2.83;;;2.63;;
12758;SDS011;20944;47.048;15.390;2023-06-10T13:08:02;2.60;;;2.40;;
12758;SDS011;20944;47.048;15.390;2023-06-10T13:10:31;2.55;;;2.38;;
12758;SDS011;20944;47.048;15.390;2023-06-10T13:13:00;2.60;;;2.40;;
12758;SDS011;20944;47.048;15.390;2023-06-10T13:15:28;2.47;;;2.28;;
12758;SDS011;20944;47.048;15.390;2023-06-10T13:17:57;2.03;;;1.92;;
12758;SDS011;20944;47.048;15.390;2023-06-10T13:20:25;1.83;;;1.73;;
12758;SDS011;20944;47.048;15.390;2023-06-10T13:22:53;2.10;;;1.95;;
12758;SDS011;20944;47.048;15.390;2023-06-10T13:25:22;2.35;;;2.15;;
12758;SDS011;20944;47.048;15.390;2023-06-10T13:27:52;2.28;;;2.08;;
12758;SDS011;20944;47.048;15.390;2023-06-10T13:30:20;2.85;;;2.10;;
12758;SDS011;20944;47.048;15.390;2023-06-10T13:32:49;2.33;;;2.13;;
12758;SDS011;20944;47.048;15.390;2023-06-10T13:35:17;2.20;;;2.10;;
12758;SDS011;20944;47.048;15.390;2023-06-10T13:37:45;3.55;;;2.25;;
12758;SDS011;20944;47.048;15.390;2023-06-10T13:40:14;2.15;;;2.05;;
12758;SDS011;20944;47.048;15.390;2023-06-10T13:42:42;2.10;;;2.00;;
12758;SDS011;20944;47.048;15.390;2023-06-10T13:45:12;3.10;;;2.05;;
12758;SDS011;20944;47.048;15.390;2023-06-10T13:47:41;2.30;;;2.20;;
12758;SDS011;20944;47.048;15.390;2023-06-10T13:50:09;2.25;;;1.70;;
12758;SDS011;20944;47.048;15.390;2023-06-10T13:52:37;1.73;;;1.63;;
12758;SDS011;20944;47.048;15.390;2023-06-10T13:55:06;2.25;;;2.05;;
12758;SDS011;20944;47.048;15.390;2023-06-10T13:57:36;2.38;;;2.17;;
12758;SDS011;20944;47.048;15.390;2023-06-10T14:00:04;2.15;;;2.05;;
12758;SDS011;20944;47.048;15.390;2023-06-10T14:02:35;4.00;;;2.60;;
12758;SDS011;20944;47.048;15.390;2023-06-10T14:05:04;2.15;;;2.03;;
12758;SDS011;20944;47.048;15.390;2023-06-10T14:07:35;1.65;;;1.55;;
12758;SDS011;20944;47.048;15.390;2023-06-10T14:10:05;1.60;;;1.50;;
12758;SDS011;20944;47.048;15.390;2023-06-10T14:12:35;1.85;;;1.75;;
12758;SDS011;20944;47.048;15.390;2023-06-10T14:15:03;2.30;;;2.10;;
12758;SDS011;20944;47.048;15.390;2023-06-10T14:17:34;1.92;;;1.83;;
12758;SDS011;20944;47.048;15.390;2023-06-10T14:20:03;1.70;;;1.60;;
12758;SDS011;20944;47.048;15.390;2023-06-10T14:22:32;2.05;;;1.92;;
12758;SDS011;20944;47.048;15.390;2023-06-10T14:25:00;1.83;;;1.73;;
12758;SDS011;20944;47.048;15.390;2023-06-10T14:27:29;2.10;;;1.90;;
12758;SDS011;20944;47.048;15.390;2023-06-10T14:29:57;1.92;;;1.83;;
12758;SDS011;20944;47.048;15.390;2023-06-10T14:32:26;1.80;;;1.70;;
12758;SDS011;20944;47.048;15.390;2023-06-10T14:34:56;1.73;;;1.63;;
12758;SDS011;20944;47.048;15.390;2023-06-10T14:37:24;1.90;;;1.80;;
12758;SDS011;20944;47.048;15.390;2023-06-10T14:39:52;1.85;;;1.75;;
12758;SDS011;20944;47.048;15.390;2023-06-10T14:42:21;1.95;;;1.70;;
12758;SDS011;20944;47.048;15.390;2023-06-10T14:44:49;1.70;;;1.60;;
12758;SDS011;20944;47.048;15.390;2023-06-10T14:47:17;1.63;;;1.52;;
12758;SDS011;20944;47.048;15.390;2023-06-10T14:49:45;2.97;;;1.88;;
12758;SDS011;20944;47.048;15.390;2023-06-10T14:52:15;2.03;;;1.90;;